Time;durP1;ratioP1;P1;durP2;ratioP2;P2;SDS_P1;SDS_P2;PMS_P1;PMS_P2;Temp;Humidity;BMP_temperature;BMP_pressure;BME280_temperature;BME280_humidity;BME280_pressure;Samples;Min_cycle;Max_cycle;Signal;HPM_P1;HPM_P2
2021/09/05 00:01:16;;;;;;;40.95;28.48;;;21.30;99.90;;;;;;5053716;28;20409;-81
2021/09/05 00:03:41;;;;;;;34.47;24.20;;;21.10;99.90;;;;;;5054998;28;20128;-82
2021/09/05 00:06:07;;;;;;;32.05;24.95;;;21.20;99.90;;;;;;5053393;28;20025;-81
2021/09/05 00:08:33;;;;;;;31.42;24.13;;;21.50;99.90;;;;;;5054801;28;20066;-81
2021/09/05 00:10:59;;;;;;;33.50;25.45;;;21.60;99.90;;;;;;5053571;28;20040;-82
2021/09/05 00:13:25;;;;;;;39.22;27.80;;;21.10;99.90;;;;;;5053568;28;20025;-82
2021/09/05 00:15:51;;;;;;;35.08;25.75;;;20.90;99.90;;;;;;5054767;28;20020;-81
2021/09/05 00:18:16;;;;;;;31.73;25.10;;;20.70;99.90;;;;;;5053425;28;20029;-82
2021/09/05 00:20:42;;;;;;;33.20;24.50;;;20.80;99.90;;;;;;5054674;28;20025;-81
2021/09/05 00:23:09;;;;;;;36.97;27.00;;;21.10;99.90;;;;;;5053922;28;20029;-81
2021/09/05 00:25:35;;;;;;;35.45;26.10;;;21.30;99.90;;;;;;5054513;28;20028;-81
2021/09/05 00:28:01;;;;;;;34.30;25.50;;;21.40;99.90;;;;;;5053188;28;20489;-81
2021/09/05 00:30:27;;;;;;;35.90;26.05;;;21.30;99.90;;;;;;5054449;28;20053;-81
2021/09/05 00:32:53;;;;;;;33.10;24.60;;;20.70;99.90;;;;;;5054798;28;20025;-82
2021/09/05 00:35:18;;;;;;;39.45;29.30;;;20.80;99.90;;;;;;5054333;28;20478;-81
2021/09/05 00:37:44;;;;;;;40.42;28.25;;;20.30;99.90;;;;;;5054324;28;20029;-82
2021/09/05 00:40:11;;;;;;;32.88;26.65;;;20.10;99.90;;;;;;5054279;28;20021;-82
2021/09/05 00:42:36;;;;;;;40.33;29.02;;;20.10;99.90;;;;;;5054200;28;20485;-82
2021/09/05 00:45:03;;;;;;;36.90;27.52;;;20.50;99.90;;;;;;5054273;28;20021;-82
2021/09/05 00:47:28;;;;;;;40.40;28.98;;;20.50;99.90;;;;;;5054073;28;20017;-81
2021/09/05 00:49:54;;;;;;;39.47;29.00;;;20.60;99.90;;;;;;5054280;28;20029;-81
2021/09/05 00:52:20;;;;;;;35.70;26.02;;;20.20;99.90;;;;;;5054100;28;20484;-82
2021/09/05 00:54:47;;;;;;;33.97;25.10;;;20.20;99.90;;;;;;5053985;28;20032;-81
2021/09/05 00:57:14;;;;;;;33.40;24.58;;;20.60;99.90;;;;;;5054014;28;20496;-82
2021/09/05 00:59:42;;;;;;;32.42;24.48;;;20.80;99.90;;;;;;5052629;28;20029;-81
2021/09/05 01:02:08;;;;;;;33.70;25.48;;;20.80;99.90;;;;;;5054091;28;20059;-81
2021/09/05 01:04:34;;;;;;;37.55;27.92;;;20.50;99.90;;;;;;5052157;28;20056;-82
2021/09/05 01:07:01;;;;;;;34.40;25.48;;;20.10;99.90;;;;;;5053866;28;20033;-81
2021/09/05 01:09:30;;;;;;;36.47;24.88;;;19.90;99.90;;;;;;5053807;28;20435;-81
2021/09/05 01:11:57;;;;;;;28.27;22.38;;;20.20;99.90;;;;;;5053729;28;20021;-81
2021/09/05 01:14:25;;;;;;;30.13;22.45;;;20.20;99.90;;;;;;5053899;28;20132;-81
2021/09/05 01:16:52;;;;;;;32.10;24.10;;;20.00;99.90;;;;;;5053625;28;20009;-81
2021/09/05 01:19:20;;;;;;;34.63;25.30;;;20.10;99.90;;;;;;5052324;28;20078;-81
2021/09/05 01:21:48;;;;;;;29.70;22.92;;;19.70;99.90;;;;;;5053557;28;20032;-81
2021/09/05 01:24:15;;;;;;;35.13;26.05;;;19.80;99.90;;;;;;5053422;28;20028;-81
2021/09/05 01:26:46;;;;;;;35.33;27.27;;;19.90;99.90;;;;;;5053469;28;20066;-82
2021/09/05 01:29:13;;;;;;;38.70;27.95;;;20.00;99.90;;;;;;5053388;28;20025;-81
2021/09/05 01:31:46;;;;;;;38.45;27.85;;;20.40;99.90;;;;;;5052107;28;20017;-82
2021/09/05 01:34:14;;;;;;;39.00;28.85;;;20.40;99.90;;;;;;5053317;28;20029;-81
2021/09/05 01:36:40;;;;;;;39.70;29.23;;;20.10;99.90;;;;;;5053346;28;20028;-81
2021/09/05 01:39:08;;;;;;;33.83;25.38;;;19.90;99.90;;;;;;5053630;28;20509;-81
2021/09/05 01:41:34;;;;;;;37.05;26.05;;;19.90;99.90;;;;;;5053298;28;20032;-81
2021/09/05 01:44:03;;;;;;;39.40;27.60;;;20.10;99.90;;;;;;5052006;28;20397;-81
2021/09/05 01:46:29;;;;;;;36.47;27.08;;;20.00;99.90;;;;;;5053217;28;20017;-81
2021/09/05 01:48:55;;;;;;;32.10;23.95;;;20.00;99.90;;;;;;5051802;28;20370;-81
2021/09/05 01:51:21;;;;;;;33.05;25.13;;;20.20;99.90;;;;;;5053337;28;20025;-80
2021/09/05 01:53:47;;;;;;;33.40;24.02;;;20.10;99.90;;;;;;5053347;28;20017;-81
2021/09/05 01:56:12;;;;;;;;;;;20.10;99.90;;;;;;5053603;28;20013;-81
2021/09/05 01:58:38;;;;;;;25.45;18.65;;;19.90;99.90;;;;;;5053073;28;19905;-81
2021/09/05 02:01:04;;;;;;;;;;;20.00;99.90;;;;;;5053528;28;20025;-81
2021/09/05 02:03:29;;;;;;;33.67;25.60;;;19.70;99.90;;;;;;5053191;28;19913;-82
2021/09/05 02:05:55;;;;;;;32.25;23.42;;;19.30;99.90;;;;;;5053294;28;20116;-82
2021/09/05 02:08:21;;;;;;;32.78;23.92;;;19.10;99.90;;;;;;5052879;28;20055;-81
2021/09/05 02:10:47;;;;;;;30.48;22.35;;;19.40;99.90;;;;;;5052959;28;20445;-81
2021/09/05 02:13:12;;;;;;;;;;;19.70;99.90;;;;;;5053428;28;20025;-81
2021/09/05 02:15:38;;;;;;;34.92;24.20;;;19.50;99.90;;;;;;5051643;28;19905;-81
2021/09/05 02:18:04;;;;;;;29.67;21.98;;;19.40;99.90;;;;;;5051654;28;20510;-81
2021/09/05 02:20:29;;;;;;;26.33;20.25;;;19.50;99.90;;;;;;5052859;28;20029;-81
2021/09/05 02:22:55;;;;;;;;;;;19.70;99.90;;;;;;5053278;28;20032;-81
2021/09/05 02:25:21;;;;;;;24.15;19.08;;;19.90;99.90;;;;;;5052792;28;19912;-81
2021/09/05 02:27:46;;;;;;;;;;;19.80;99.90;;;;;;5053176;28;20401;-81
2021/09/05 02:30:13;;;;;;;21.98;17.95;;;19.60;99.90;;;;;;5052781;28;19935;-81
2021/09/05 02:32:39;;;;;;;19.77;16.08;;;19.50;99.90;;;;;;5052828;28;20500;-81
2021/09/05 02:35:05;;;;;;;20.65;16.35;;;19.40;99.90;;;;;;5051523;28;20035;-81
2021/09/05 02:37:32;;;;;;;23.23;19.30;;;19.30;99.90;;;;;;5052695;28;20025;-81
2021/09/05 02:39:58;;;;;;;27.58;20.00;;;18.90;99.90;;;;;;5051476;28;20022;-81
2021/09/05 02:42:24;;;;;;;26.05;20.23;;;18.60;99.90;;;;;;5052733;28;20462;-81
2021/09/05 02:44:50;;;;;;;24.17;19.02;;;18.20;99.90;;;;;;5052735;28;20021;-81
2021/09/05 02:47:15;;;;;;;;;;;18.10;99.90;;;;;;5056919;28;20087;-81
2021/09/05 02:49:41;;;;;;;31.55;21.27;;;18.20;99.90;;;;;;5056378;28;19991;-81
2021/09/05 02:52:09;;;;;;;;;;;18.20;99.90;;;;;;5056926;28;20017;-81
2021/09/05 02:54:38;;;;;;;24.95;18.38;;;18.20;99.90;;;;;;5056325;28;19905;-81
2021/09/05 02:57:04;;;;;;;27.38;19.30;;;18.40;99.90;;;;;;5055017;28;20021;-81
2021/09/05 02:59:30;;;;;;;26.40;19.45;;;18.90;99.90;;;;;;5056224;28;20024;-82
2021/09/05 03:01:57;;;;;;;26.55;19.92;;;19.10;99.90;;;;;;5056126;28;20378;-81
2021/09/05 03:04:23;;;;;;;30.20;19.67;;;19.00;99.90;;;;;;5055970;28;20045;-81
2021/09/05 03:06:49;;;;;;;26.90;17.90;;;19.10;99.90;;;;;;5054798;28;20055;-81
2021/09/05 03:09:14;;;;;;;;;;;19.30;99.90;;;;;;5056614;28;20024;-81
2021/09/05 03:11:40;;;;;;;26.45;20.15;;;19.10;99.90;;;;;;5056020;28;19954;-81
2021/09/05 03:14:06;;;;;;;;;;;18.80;99.90;;;;;;5056476;28;20039;-81
2021/09/05 03:16:31;;;;;;;30.35;22.60;;;18.80;99.90;;;;;;5055920;28;19915;-82
2021/09/05 03:18:57;;;;;;;31.08;23.70;;;18.80;99.90;;;;;;5055836;28;20028;-81
2021/09/05 03:21:23;;;;;;;34.42;26.30;;;18.80;99.90;;;;;;5054531;28;20025;-81
2021/09/05 03:23:49;;;;;;;33.20;24.98;;;18.80;99.90;;;;;;5055760;28;20401;-81
2021/09/05 03:26:14;;;;;;;;;;;18.60;99.90;;;;;;5056244;28;20397;-81
2021/09/05 03:28:40;;;;;;;31.98;24.10;;;18.70;99.90;;;;;;5054320;28;20293;-81
2021/09/05 03:31:06;;;;;;;30.90;23.15;;;18.60;99.90;;;;;;5055680;28;20496;-81
2021/09/05 03:33:31;;;;;;;28.38;22.58;;;18.70;99.90;;;;;;5055659;28;20017;-82
2021/09/05 03:35:57;;;;;;;26.77;21.85;;;19.00;99.90;;;;;;5055546;28;20021;-81
2021/09/05 03:38:23;;;;;;;;;;;19.20;99.90;;;;;;5055965;28;20021;-81
2021/09/05 03:40:48;;;;;;;28.95;22.80;;;19.00;99.90;;;;;;5055923;28;19944;-81
2021/09/05 03:43:14;;;;;;;;;;;19.00;99.90;;;;;;5055868;28;20104;-81
2021/09/05 03:45:40;;;;;;;36.05;25.45;;;19.20;99.90;;;;;;5054128;28;19954;-81
2021/09/05 03:48:05;;;;;;;;;;;19.10;99.90;;;;;;5055823;28;20025;-81
2021/09/05 03:50:31;;;;;;;30.17;24.08;;;19.00;99.90;;;;;;5055271;28;19905;-81
2021/09/05 03:52:57;;;;;;;;;;;18.80;99.90;;;;;;5054338;28;20032;-81
2021/09/05 03:55:22;;;;;;;34.33;25.73;;;18.70;99.90;;;;;;5055179;28;19905;-80
2021/09/05 03:57:48;;;;;;;;;;;18.60;99.90;;;;;;5054305;28;20020;-80
2021/09/05 04:00:14;;;;;;;32.47;24.80;;;18.60;99.90;;;;;;5055080;28;19912;-81
2021/09/05 04:02:40;;;;;;;;;;;18.90;99.90;;;;;;5055450;28;20074;-80
2021/09/05 04:05:07;;;;;;;34.05;23.92;;;19.00;99.90;;;;;;5054587;28;20007;-81
2021/09/05 04:07:34;;;;;;;35.58;25.52;;;19.10;99.90;;;;;;5054971;28;20021;-81
2021/09/05 04:10:10;;;;;;;37.47;25.58;;;19.10;99.90;;;;;;5054873;28;20508;-81
2021/09/05 04:12:40;;;;;;;49.55;25.05;;;18.80;99.90;;;;;;5054859;28;20027;-81
2021/09/05 04:15:07;;;;;;;65.20;33.00;;;18.20;99.90;;;;;;5055217;28;20118;-81
2021/09/05 04:17:33;;;;;;;56.97;28.30;;;17.90;99.90;;;;;;5054903;28;20031;-81
2021/09/05 04:19:58;;;;;;;;;;;18.20;99.90;;;;;;5055193;28;20092;-81
2021/09/05 04:22:24;;;;;;;68.10;35.25;;;18.40;99.90;;;;;;5054658;28;19999;-81
2021/09/05 04:24:50;;;;;;;;;;;18.70;99.90;;;;;;5054995;28;20014;-81
2021/09/05 04:27:17;;;;;;;63.67;31.00;;;18.90;99.90;;;;;;5054850;28;20340;-81
2021/09/05 04:29:42;;;;;;;66.03;33.03;;;19.10;99.90;;;;;;5054558;28;20028;-81
2021/09/05 04:32:08;;;;;;;63.35;30.55;;;18.90;99.90;;;;;;5054555;28;20021;-81
2021/09/05 04:34:34;;;;;;;;;;;18.80;99.90;;;;;;5054817;28;20025;-81
2021/09/05 04:37:00;;;;;;;49.88;29.10;;;18.90;99.90;;;;;;5054401;28;20280;-81
2021/09/05 04:39:26;;;;;;;68.35;33.63;;;18.70;99.90;;;;;;5054689;28;20471;-80
2021/09/05 04:41:51;;;;;;;;;;;18.60;99.90;;;;;;5054726;28;20485;-81
2021/09/05 04:44:17;;;;;;;63.25;34.47;;;18.50;99.90;;;;;;5054252;28;19912;-80
2021/09/05 04:46:43;;;;;;;;;;;18.50;99.90;;;;;;5054740;28;20098;-81
2021/09/05 04:49:10;;;;;;;66.25;34.08;;;18.80;99.90;;;;;;5052801;28;19995;-81
2021/09/05 04:51:35;;;;;;;64.30;34.55;;;18.70;99.90;;;;;;5054114;28;20068;-81
2021/09/05 04:54:01;;;;;;;52.47;31.77;;;18.90;99.90;;;;;;5054100;28;20460;-81
2021/09/05 04:56:27;;;;;;;;;;;18.80;99.90;;;;;;5054425;28;20029;-81
2021/09/05 04:58:53;;;;;;;227.95;41.03;;;18.70;99.90;;;;;;5053971;28;19912;-80
2021/09/05 05:01:18;;;;;;;;;;;18.20;99.90;;;;;;5054338;28;20094;-81
2021/09/05 05:03:44;;;;;;;126.88;41.17;;;17.60;99.90;;;;;;5054069;28;19919;-80
2021/09/05 05:06:10;;;;;;;;;;;17.50;99.90;;;;;;5052965;28;20032;-81
2021/09/05 05:08:36;;;;;;;53.25;34.42;;;17.80;99.90;;;;;;5052089;28;19931;-81
2021/09/05 05:11:02;;;;;;;;;;;18.20;99.90;;;;;;5052944;28;20504;-81
2021/09/05 05:13:28;;;;;;;44.45;30.52;;;18.50;99.90;;;;;;5053748;28;19904;-81
2021/09/05 05:15:55;;;;;;;65.53;34.38;;;18.60;99.90;;;;;;5053878;28;20397;-81
2021/09/05 05:18:24;;;;;;;50.50;33.72;;;18.70;99.90;;;;;;5052318;28;20047;-81
2021/09/05 05:20:51;;;;;;;61.28;38.55;;;18.90;99.90;;;;;;5053596;28;20030;-82
2021/09/05 05:23:18;;;;;;;53.50;34.45;;;18.90;99.90;;;;;;5052246;28;20520;-81
2021/09/05 05:25:44;;;;;;;48.40;32.55;;;19.00;99.90;;;;;;5053435;28;20017;-81
2021/09/05 05:28:10;;;;;;;50.05;34.47;;;19.00;99.90;;;;;;5053418;28;20029;-81
2021/09/05 05:30:35;;;;;;;60.30;33.72;;;19.00;99.90;;;;;;5052145;28;20032;-81
2021/09/05 05:33:01;;;;;;;44.78;32.65;;;18.90;99.90;;;;;;5053429;28;20025;-80
2021/09/05 05:35:27;;;;;;;;;;;18.50;99.90;;;;;;5053782;28;20017;-81
2021/09/05 05:37:53;;;;;;;193.88;34.85;;;18.80;99.90;;;;;;5053338;28;19912;-81
2021/09/05 05:40:22;;;;;;;;;;;18.70;99.90;;;;;;5053745;28;20029;-80
2021/09/05 05:42:48;;;;;;;37.25;28.80;;;18.60;99.90;;;;;;5053496;28;19904;-81
2021/09/05 05:45:17;;;;;;;47.60;30.35;;;18.50;99.90;;;;;;5053264;28;20477;-82
2021/09/05 05:47:45;;;;;;;40.60;31.02;;;18.60;99.90;;;;;;5053095;28;20448;-81
2021/09/05 05:50:12;;;;;;;37.30;28.30;;;18.60;99.90;;;;;;5053227;28;20101;-82
2021/09/05 05:52:38;;;;;;;55.75;31.17;;;18.80;99.90;;;;;;5053451;28;20013;-81
2021/09/05 05:55:05;;;;;;;118.90;32.22;;;18.90;99.90;;;;;;5053158;28;20028;-81
2021/09/05 05:57:31;;;;;;;36.33;26.92;;;18.60;99.90;;;;;;5053050;28;20041;-82
2021/09/05 05:59:57;;;;;;;32.45;25.83;;;18.40;99.90;;;;;;5053075;28;20441;-81
2021/09/05 06:02:22;;;;;;;31.73;24.90;;;18.70;99.90;;;;;;5053042;28;20025;-81
2021/09/05 06:04:48;;;;;;;31.95;26.25;;;19.00;99.90;;;;;;5052816;28;20056;-81
2021/09/05 06:07:14;;;;;;;34.25;26.85;;;19.00;99.90;;;;;;5053264;28;20028;-81
2021/09/05 06:09:41;;;;;;;32.33;27.42;;;18.80;99.90;;;;;;5053108;28;20029;-81
2021/09/05 06:12:08;;;;;;;31.30;26.85;;;18.60;99.90;;;;;;5052976;28;20063;-81
2021/09/05 06:14:34;;;;;;;37.85;28.30;;;18.70;99.90;;;;;;5051685;28;20029;-81
2021/09/05 06:17:00;;;;;;;35.72;29.60;;;19.00;99.90;;;;;;5052938;28;20017;-81
2021/09/05 06:19:26;;;;;;;29.98;26.77;;;18.90;99.90;;;;;;5051583;28;20033;-82
2021/09/05 06:21:52;;;;;;;32.47;28.13;;;19.10;99.90;;;;;;5056019;28;20025;-81
2021/09/05 06:24:18;;;;;;;29.77;26.73;;;19.30;99.90;;;;;;5056958;28;20028;-81
2021/09/05 06:26:44;;;;;;;29.25;25.85;;;19.30;99.90;;;;;;5055563;28;20025;-81
2021/09/05 06:29:09;;;;;;;26.98;23.13;;;19.40;99.90;;;;;;5056792;28;20029;-81
2021/09/05 06:31:35;;;;;;;28.02;22.80;;;19.40;99.90;;;;;;5056757;28;20025;-81
2021/09/05 06:34:01;;;;;;;27.33;24.42;;;19.70;99.90;;;;;;5056859;28;20029;-81
2021/09/05 06:36:27;;;;;;;26.95;24.15;;;19.90;99.90;;;;;;5056666;28;20068;-81
2021/09/05 06:38:53;;;;;;;212.35;40.45;;;20.00;99.90;;;;;;5056615;28;20053;-81
2021/09/05 06:41:18;;;;;;;;;;;19.40;99.90;;;;;;5057064;28;20036;-82
2021/09/05 06:43:44;;;;;;;32.63;24.52;;;19.40;99.90;;;;;;5057037;28;19905;-81
2021/09/05 06:46:10;;;;;;;27.17;24.02;;;19.70;99.90;;;;;;5056489;28;20025;-82
2021/09/05 06:48:36;;;;;;;49.95;24.30;;;19.50;99.90;;;;;;5056392;28;20063;-82
2021/09/05 06:51:02;;;;;;;27.42;23.40;;;18.70;99.90;;;;;;5056506;28;20048;-81
2021/09/05 06:53:27;;;;;;;353.85;38.25;;;19.10;99.90;;;;;;5056336;28;20017;-82
2021/09/05 06:55:53;;;;;;;53.47;23.70;;;19.10;99.90;;;;;;5056478;28;20048;-81
2021/09/05 06:58:19;;;;;;;26.85;22.70;;;18.60;99.90;;;;;;5056408;28;20025;-80
2021/09/05 07:00:45;;;;;;;29.95;21.65;;;19.30;99.90;;;;;;5054999;28;20486;-81
2021/09/05 07:03:10;;;;;;;26.73;21.05;;;19.90;99.90;;;;;;5056001;28;20021;-81
2021/09/05 07:05:36;;;;;;;79.95;22.50;;;20.00;99.90;;;;;;5056272;28;20040;-81
2021/09/05 07:08:02;;;;;;;27.92;18.88;;;19.60;99.90;;;;;;5054761;28;20120;-81
2021/09/05 07:10:28;;;;;;;19.95;17.83;;;19.90;99.90;;;;;;5056384;28;20017;-82
2021/09/05 07:12:53;;;;;;;19.63;17.20;;;20.30;99.90;;;;;;5056248;28;20017;-81
2021/09/05 07:15:19;;;;;;;18.40;16.40;;;20.50;99.90;;;;;;5054671;28;20394;-82
2021/09/05 07:17:45;;;;;;;24.90;15.27;;;20.60;99.90;;;;;;5054577;28;20022;-82
2021/09/05 07:20:11;;;;;;;19.90;15.73;;;20.80;99.90;;;;;;5054598;28;20029;-81
2021/09/05 07:22:37;;;;;;;19.55;17.10;;;20.80;99.90;;;;;;5055923;28;20025;-82
2021/09/05 07:25:03;;;;;;;17.35;15.52;;;20.80;99.90;;;;;;5055698;28;20032;-81
2021/09/05 07:27:30;;;;;;;22.10;19.08;;;21.10;99.90;;;;;;5055800;28;20426;-82
2021/09/05 07:29:56;;;;;;;18.35;16.17;;;20.70;99.90;;;;;;5054325;28;20029;-82
2021/09/05 07:32:21;;;;;;;20.42;17.33;;;20.60;99.90;;;;;;5055512;28;20025;-82
2021/09/05 07:34:48;;;;;;;17.58;15.77;;;21.40;99.90;;;;;;5054325;28;20560;-81
2021/09/05 07:37:14;;;;;;;26.55;16.27;;;21.90;99.90;;;;;;5055551;28;20013;-82
2021/09/05 07:39:41;;;;;;;28.83;16.60;;;22.30;99.90;;;;;;5055623;28;20033;-82
2021/09/05 07:42:06;;;;;;;20.58;16.75;;;21.90;99.90;;;;;;5054150;28;20036;-81
2021/09/05 07:44:32;;;;;;;20.13;17.15;;;22.10;99.90;;;;;;5055419;28;20025;-81
2021/09/05 07:47:01;;;;;;;75.13;21.35;;;22.00;99.90;;;;;;5054081;28;20124;-81
2021/09/05 07:49:28;;;;;;;19.00;16.40;;;21.80;99.90;;;;;;5055432;28;20104;-82
2021/09/05 07:51:54;;;;;;;18.13;16.17;;;22.40;99.90;;;;;;5053969;28;20021;-81
2021/09/05 07:54:20;;;;;;;17.02;15.23;;;22.70;99.90;;;;;;5053976;28;20464;-82
2021/09/05 07:56:45;;;;;;;18.63;15.95;;;23.00;99.90;;;;;;5055201;28;20021;-82
2021/09/05 07:59:11;;;;;;;19.83;17.63;;;23.50;99.90;;;;;;5055199;28;20401;-81
2021/09/05 08:01:37;;;;;;;19.83;17.48;;;23.40;99.90;;;;;;5055386;28;20052;-82
2021/09/05 08:04:03;;;;;;;19.15;17.10;;;23.50;99.90;;;;;;5054861;28;20124;-82
2021/09/05 08:06:28;;;;;;;19.75;16.92;;;24.00;99.90;;;;;;5055298;28;20078;-81
2021/09/05 08:08:57;;;;;;;19.25;16.40;;;24.00;99.90;;;;;;5053572;28;20116;-82
2021/09/05 08:11:23;;;;;;;27.98;16.85;;;24.30;99.90;;;;;;5053640;28;20021;-82
2021/09/05 08:13:49;;;;;;;20.40;17.17;;;24.80;99.90;;;;;;5055080;28;20032;-82
2021/09/05 08:16:15;;;;;;;18.23;15.07;;;25.20;99.90;;;;;;5054841;28;20021;-82
2021/09/05 08:18:41;;;;;;;17.65;13.20;;;25.70;99.90;;;;;;5054921;28;20477;-82
2021/09/05 08:21:08;;;;;;;18.08;15.27;;;25.90;99.90;;;;;;5053463;28;20489;-81
2021/09/05 08:23:35;;;;;;;20.70;16.42;;;25.80;99.90;;;;;;5053400;28;20463;-81
2021/09/05 08:26:02;;;;;;;24.60;17.00;;;26.10;99.90;;;;;;5054547;28;20078;-82
2021/09/05 08:28:28;;;;;;;20.23;16.98;;;26.10;99.90;;;;;;5054651;28;20053;-79
2021/09/05 08:30:54;;;;;;;23.00;18.95;;;26.20;99.90;;;;;;5054584;28;20029;-80
2021/09/05 08:33:20;;;;;;;18.33;15.65;;;26.20;99.90;;;;;;5053179;28;20386;-80
2021/09/05 08:35:46;;;;;;;18.17;15.73;;;26.90;99.90;;;;;;5054393;28;20105;-80
2021/09/05 08:38:12;;;;;;;19.35;15.98;;;27.90;98.80;;;;;;5054586;28;20440;-80
2021/09/05 08:40:41;;;;;;;17.73;15.10;;;28.10;98.10;;;;;;5054356;28;20032;-81
2021/09/05 08:43:08;;;;;;;19.08;16.58;;;29.20;97.10;;;;;;5053679;28;20052;-81
2021/09/05 08:45:35;;;;;;;17.95;14.50;;;29.50;95.60;;;;;;5052971;28;20108;-80
2021/09/05 08:48:02;;;;;;;16.33;14.63;;;29.60;94.90;;;;;;5052868;28;20052;-81
2021/09/05 08:50:28;;;;;;;17.58;15.55;;;31.10;93.50;;;;;;5052883;28;20504;-81
2021/09/05 08:52:54;;;;;;;17.85;14.43;;;32.80;90.00;;;;;;5054092;28;20025;-81
2021/09/05 08:55:21;;;;;;;17.35;15.45;;;34.00;85.60;;;;;;5054093;28;20052;-81
2021/09/05 08:57:47;;;;;;;16.33;14.63;;;34.80;81.20;;;;;;5054029;28;20041;-81
2021/09/05 09:00:13;;;;;;;16.02;12.57;;;35.10;78.30;;;;;;5052577;28;20021;-81
2021/09/05 09:02:46;;;;;;;19.25;14.77;;;36.10;75.60;;;;;;5053987;28;20075;-81
2021/09/05 09:05:13;;;;;;;16.40;13.95;;;35.90;71.60;;;;;;5053424;28;20064;-80
2021/09/05 09:07:47;;;;;;;15.25;13.07;;;35.10;72.70;;;;;;5053834;28;20099;-80
2021/09/05 09:10:14;;;;;;;16.45;13.82;;;35.10;73.80;;;;;;5053674;28;20424;-81
2021/09/05 09:12:48;;;;;;;17.80;14.80;;;36.60;69.40;;;;;;5053738;28;20100;-81
2021/09/05 09:15:19;;;;;;;16.50;14.73;;;37.00;66.80;;;;;;5052445;28;20025;-80
2021/09/05 09:17:49;;;;;;;15.73;13.63;;;37.80;64.70;;;;;;5053650;28;20053;-81
2021/09/05 09:20:31;;;;;;;17.17;15.32;;;37.20;62.80;;;;;;5052028;28;20458;-81
2021/09/05 09:23:18;;;;;;;18.50;15.50;;;36.10;65.30;;;;;;5053570;28;20103;-80
2021/09/05 09:25:55;;;;;;;15.93;12.90;;;35.70;67.80;;;;;;5052138;28;20511;-82
2021/09/05 09:28:44;;;;;;;18.90;13.75;;;38.60;62.00;;;;;;5053733;28;20033;-81
2021/09/05 09:31:24;;;;;;;16.80;13.82;;;41.50;55.50;;;;;;5051968;28;20033;-80
2021/09/05 09:33:52;;;;;;;14.98;12.98;;;42.50;51.30;;;;;;5053515;28;20036;-81
2021/09/05 09:36:22;;;;;;;13.52;11.10;;;42.80;50.00;;;;;;5052144;28;20021;-82
2021/09/05 09:38:59;;;;;;;14.68;12.40;;;44.20;47.70;;;;;;5053284;28;20025;-82
2021/09/05 09:41:40;;;;;;;14.88;11.80;;;44.30;47.70;;;;;;5052011;28;20021;-82
2021/09/05 09:44:13;;;;;;;13.45;11.55;;;44.50;45.40;;;;;;5053346;28;20017;-82
2021/09/05 09:46:41;;;;;;;11.55;10.25;;;43.80;46.60;;;;;;5051728;28;20029;-82
2021/09/05 09:49:08;;;;;;;14.07;12.20;;;45.80;44.40;;;;;;5051926;28;20379;-82
2021/09/05 09:51:35;;;;;;;12.43;11.10;;;46.50;42.90;;;;;;5051861;28;20095;-82
2021/09/05 09:54:01;;;;;;;11.80;10.07;;;43.40;44.70;;;;;;5051810;28;20401;-82
2021/09/05 09:56:28;;;;;;;12.77;11.48;;;44.40;45.40;;;;;;5053113;28;20489;-82
2021/09/05 09:59:00;;;;;;;14.93;13.38;;;46.60;42.70;;;;;;5053087;28;20078;-82
2021/09/05 10:01:27;;;;;;;14.10;12.70;;;47.50;41.10;;;;;;5051789;28;20175;-82
2021/09/05 10:03:56;;;;;;;11.95;10.65;;;47.00;41.20;;;;;;5052970;28;20037;-82
2021/09/05 10:06:30;;;;;;;14.50;12.98;;;45.50;42.50;;;;;;5053055;28;20013;-82
2021/09/05 10:09:04;;;;;;;14.23;12.73;;;49.00;40.20;;;;;;5051557;28;20029;-82
2021/09/05 10:11:31;;;;;;;13.00;11.70;;;47.20;39.40;;;;;;5051512;28;20029;-82
2021/09/05 10:13:58;;;;;;;14.27;12.88;;;46.40;38.80;;;;;;5051709;28;20021;-83
2021/09/05 10:16:24;;;;;;;12.05;10.85;;;46.80;39.20;;;;;;5053008;28;20025;-82
2021/09/05 10:18:53;;;;;;;15.00;13.48;;;46.10;40.10;;;;;;5051541;28;20029;-83
2021/09/05 10:21:21;;;;;;;16.35;14.88;;;48.00;39.30;;;;;;5051645;28;20021;-83
2021/09/05 10:23:53;;;;;;;15.98;14.38;;;49.20;37.70;;;;;;5051581;28;20108;-83
2021/09/05 10:26:20;;;;;;;15.05;13.75;;;47.90;38.10;;;;;;5051476;28;20025;-83
2021/09/05 10:28:51;;;;;;;12.55;11.35;;;49.10;37.70;;;;;;5051527;28;20032;-83
2021/09/05 10:31:31;;;;;;;13.45;11.50;;;46.30;37.10;;;;;;5051272;28;20033;-82
2021/09/05 10:33:58;;;;;;;10.90;9.83;;;45.80;37.00;;;;;;5052718;28;20025;-83
2021/09/05 10:36:26;;;;;;;12.93;11.00;;;45.60;36.00;;;;;;5052788;28;20489;-83
2021/09/05 10:39:04;;;;;;;12.32;11.13;;;49.10;36.00;;;;;;5051386;28;20021;-82
2021/09/05 10:41:29;;;;;;;11.15;9.90;;;48.40;36.50;;;;;;5051243;28;20063;-82
2021/09/05 10:44:05;;;;;;;13.25;12.05;;;47.60;36.30;;;;;;5052952;28;20413;-83
2021/09/05 10:46:50;;;;;;;19.85;18.25;;;49.90;36.00;;;;;;5051138;28;20025;-83
2021/09/05 10:49:18;;;;;;;21.25;19.70;;;51.90;35.00;;;;;;5051098;28;20082;-83
2021/09/05 10:51:46;;;;;;;21.60;19.98;;;51.70;34.10;;;;;;5052623;28;20053;-83
2021/09/05 10:54:24;;;;;;;22.25;20.52;;;51.90;34.70;;;;;;5051328;28;20452;-83
2021/09/05 10:56:49;;;;;;;21.35;19.75;;;51.80;34.30;;;;;;5051047;28;20024;-82
2021/09/05 10:59:23;;;;;;;15.93;14.63;;;50.80;33.30;;;;;;5052462;28;20047;-83
2021/09/05 11:01:49;;;;;;;20.90;19.20;;;50.00;34.30;;;;;;5051277;28;20567;-83
2021/09/05 11:04:15;;;;;;;22.20;20.60;;;52.30;34.20;;;;;;5052375;28;20072;-83
2021/09/05 11:06:43;;;;;;;13.63;12.43;;;51.80;33.90;;;;;;5052549;28;20079;-83
2021/09/05 11:09:20;;;;;;;14.30;12.80;;;47.90;35.50;;;;;;5054848;28;20037;-82
2021/09/05 11:12:14;;;;;;;17.77;16.38;;;48.10;35.90;;;;;;5054769;28;20052;-83
2021/09/05 11:14:40;;;;;;;14.48;13.27;;;50.70;35.00;;;;;;5054481;28;20485;-83
2021/09/05 11:17:12;;;;;;;10.40;9.30;;;49.70;34.60;;;;;;5055989;28;20028;-83
2021/09/05 11:20:02;;;;;;;12.15;11.05;;;47.70;35.90;;;;;;5056311;28;20102;-83
2021/09/05 11:22:47;;;;;;;15.70;14.38;;;48.70;36.00;;;;;;5054337;28;20025;-83
2021/09/05 11:25:25;;;;;;;21.30;19.73;;;50.10;34.70;;;;;;5056227;28;20047;-83
2021/09/05 11:28:03;;;;;;;25.48;23.67;;;52.20;34.40;;;;;;5055816;28;20025;-83
2021/09/05 11:30:35;;;;;;;22.50;20.90;;;52.70;33.50;;;;;;5055758;28;20028;-83
2021/09/05 11:33:04;;;;;;;23.75;21.98;;;52.60;33.90;;;;;;5056040;28;20071;-84
2021/09/05 11:35:39;;;;;;;22.73;21.02;;;51.90;33.00;;;;;;5055476;28;20017;-83
2021/09/05 11:38:06;;;;;;;18.30;16.80;;;52.80;33.70;;;;;;5055420;28;20028;-83
2021/09/05 11:40:40;;;;;;;20.95;19.35;;;53.00;34.10;;;;;;5054207;28;20422;-84
2021/09/05 11:43:06;;;;;;;21.02;19.33;;;54.20;33.50;;;;;;5055756;28;20013;-83
2021/09/05 11:45:38;;;;;;;20.95;19.35;;;54.00;33.20;;;;;;5055481;28;20032;-83
2021/09/05 11:48:05;;;;;;;18.23;16.58;;;54.00;33.00;;;;;;5055336;28;20017;-83
2021/09/05 11:50:36;;;;;;;12.70;11.50;;;52.20;33.80;;;;;;5055449;28;20017;-83
2021/09/05 11:53:03;;;;;;;13.25;12.05;;;50.00;35.20;;;;;;5054057;28;20028;-83
2021/09/05 11:55:29;;;;;;;11.88;9.60;;;51.80;34.20;;;;;;5054014;28;20075;-83
2021/09/05 11:58:05;;;;;;;12.43;11.23;;;50.80;34.50;;;;;;5054011;28;20559;-83
2021/09/05 12:00:39;;;;;;;10.88;9.77;;;50.50;34.80;;;;;;5053663;28;20021;-83
2021/09/05 12:03:07;;;;;;;12.95;10.13;;;48.80;34.90;;;;;;5055456;28;20067;-82
2021/09/05 12:05:34;;;;;;;10.63;8.82;;;50.50;33.90;;;;;;5055277;28;20100;-83
2021/09/05 12:08:01;;;;;;;10.70;8.85;;;50.60;35.40;;;;;;5054937;28;20028;-84
2021/09/05 12:10:28;;;;;;;10.80;8.60;;;50.40;35.30;;;;;;5054953;28;20028;-82
2021/09/05 12:12:57;;;;;;;9.40;6.60;;;50.00;35.50;;;;;;5053625;28;20028;-82
2021/09/05 12:15:23;;;;;;;8.63;6.25;;;48.60;34.90;;;;;;5054861;28;20017;-83
2021/09/05 12:17:50;;;;;;;10.07;7.40;;;49.20;36.30;;;;;;5054016;28;20535;-83
2021/09/05 12:20:18;;;;;;;10.60;9.50;;;51.20;35.20;;;;;;5053516;28;20025;-83
2021/09/05 12:22:49;;;;;;;12.80;11.60;;;52.60;34.60;;;;;;5053443;28;20516;-83
2021/09/05 12:25:18;;;;;;;10.60;9.50;;;53.00;34.30;;;;;;5054654;28;20107;-83
2021/09/05 12:27:59;;;;;;;11.93;10.68;;;51.60;34.20;;;;;;5053364;28;20025;-84
2021/09/05 12:30:48;;;;;;;9.15;8.13;;;52.80;34.50;;;;;;5053310;28;20459;-83
2021/09/05 12:33:20;;;;;;;7.35;4.10;;;49.20;33.50;;;;;;5054089;28;20047;-81
2021/09/05 12:35:50;;;;;;;6.40;3.50;;;43.50;38.60;;;;;;5054582;28;20493;-80
2021/09/05 12:38:25;;;;;;;7.60;3.78;;;41.20;40.10;;;;;;5054500;28;20027;-81